sensor_id;sensor_type;location;lat;lon;timestamp;P1;durP1;ratioP1;P2;durP2;ratioP2
39982;SDS011;25670;44.782;10.356;2022-11-11T00:00:48;204.73;;;90.43;;
39982;SDS011;25670;44.782;10.356;2022-11-11T00:03:33;203.35;;;89.05;;
39982;SDS011;25670;44.782;10.356;2022-11-11T00:06:18;194.95;;;86.90;;
39982;SDS011;25670;44.782;10.356;2022-11-11T00:09:03;205.77;;;90.63;;
39982;SDS011;25670;44.782;10.356;2022-11-11T00:11:48;206.93;;;92.28;;
39982;SDS011;25670;44.782;10.356;2022-11-11T00:14:32;203.50;;;88.25;;
39982;SDS011;25670;44.782;10.356;2022-11-11T00:17:17;201.50;;;86.82;;
39982;SDS011;25670;44.782;10.356;2022-11-11T00:20:20;195.55;;;85.40;;
39982;SDS011;25670;44.782;10.356;2022-11-11T00:23:25;217.40;;;91.90;;
39982;SDS011;25670;44.782;10.356;2022-11-11T00:26:29;208.32;;;86.65;;
39982;SDS011;25670;44.782;10.356;2022-11-11T00:29:14;202.75;;;87.93;;
39982;SDS011;25670;44.782;10.356;2022-11-11T00:31:58;210.13;;;92.57;;
39982;SDS011;25670;44.782;10.356;2022-11-11T00:35:05;203.55;;;91.50;;
39982;SDS011;25670;44.782;10.356;2022-11-11T00:38:09;192.10;;;90.32;;
39982;SDS011;25670;44.782;10.356;2022-11-11T00:41:19;186.35;;;90.20;;
39982;SDS011;25670;44.782;10.356;2022-11-11T00:44:06;180.80;;;90.05;;
39982;SDS011;25670;44.782;10.356;2022-11-11T00:46:51;188.88;;;91.97;;
39982;SDS011;25670;44.782;10.356;2022-11-11T00:49:54;177.68;;;88.55;;
39982;SDS011;25670;44.782;10.356;2022-11-11T00:52:58;183.60;;;88.43;;
39982;SDS011;25670;44.782;10.356;2022-11-11T00:55:43;186.25;;;90.82;;
39982;SDS011;25670;44.782;10.356;2022-11-11T00:58:28;178.85;;;88.50;;
39982;SDS011;25670;44.782;10.356;2022-11-11T01:01:13;182.57;;;89.20;;
39982;SDS011;25670;44.782;10.356;2022-11-11T01:03:59;182.23;;;87.70;;
39982;SDS011;25670;44.782;10.356;2022-11-11T01:06:44;170.27;;;85.25;;
39982;SDS011;25670;44.782;10.356;2022-11-11T01:09:29;155.75;;;84.07;;
39982;SDS011;25670;44.782;10.356;2022-11-11T01:12:14;160.45;;;82.38;;
39982;SDS011;25670;44.782;10.356;2022-11-11T01:14:59;165.93;;;81.70;;
39982;SDS011;25670;44.782;10.356;2022-11-11T01:17:43;155.48;;;80.72;;
39982;SDS011;25670;44.782;10.356;2022-11-11T01:20:28;154.73;;;78.63;;
39982;SDS011;25670;44.782;10.356;2022-11-11T01:23:13;149.32;;;77.47;;
39982;SDS011;25670;44.782;10.356;2022-11-11T01:26:05;154.52;;;77.68;;
39982;SDS011;25670;44.782;10.356;2022-11-11T01:28:58;156.63;;;80.35;;
39982;SDS011;25670;44.782;10.356;2022-11-11T01:31:43;158.15;;;79.95;;
39982;SDS011;25670;44.782;10.356;2022-11-11T01:34:27;150.85;;;79.05;;
39982;SDS011;25670;44.782;10.356;2022-11-11T01:37:12;157.40;;;78.22;;
39982;SDS011;25670;44.782;10.356;2022-11-11T01:39:57;148.90;;;78.20;;
39982;SDS011;25670;44.782;10.356;2022-11-11T01:42:48;152.02;;;77.30;;
39982;SDS011;25670;44.782;10.356;2022-11-11T01:48:47;138.68;;;73.20;;
39982;SDS011;25670;44.782;10.356;2022-11-11T01:52:13;152.82;;;72.88;;
39982;SDS011;25670;44.782;10.356;2022-11-11T02:00:49;142.20;;;72.82;;
39982;SDS011;25670;44.782;10.356;2022-11-11T02:03:34;148.48;;;74.28;;
39982;SDS011;25670;44.782;10.356;2022-11-11T02:06:23;140.05;;;71.43;;
39982;SDS011;25670;44.782;10.356;2022-11-11T02:09:10;145.20;;;73.75;;
39982;SDS011;25670;44.782;10.356;2022-11-11T02:11:55;138.15;;;71.80;;
39982;SDS011;25670;44.782;10.356;2022-11-11T02:15:03;154.65;;;76.90;;
39982;SDS011;25670;44.782;10.356;2022-11-11T02:17:50;157.93;;;76.35;;
39982;SDS011;25670;44.782;10.356;2022-11-11T02:20:36;158.68;;;78.90;;
39982;SDS011;25670;44.782;10.356;2022-11-11T02:23:27;153.30;;;77.22;;
39982;SDS011;25670;44.782;10.356;2022-11-11T02:26:27;153.40;;;75.25;;
39982;SDS011;25670;44.782;10.356;2022-11-11T02:29:16;154.90;;;76.40;;
39982;SDS011;25670;44.782;10.356;2022-11-11T02:32:03;151.82;;;75.55;;
39982;SDS011;25670;44.782;10.356;2022-11-11T02:34:48;156.85;;;77.75;;
39982;SDS011;25670;44.782;10.356;2022-11-11T02:37:33;159.98;;;79.60;;
39982;SDS011;25670;44.782;10.356;2022-11-11T02:40:19;151.90;;;76.40;;
39982;SDS011;25670;44.782;10.356;2022-11-11T02:43:16;154.98;;;75.80;;
39982;SDS011;25670;44.782;10.356;2022-11-11T02:46:01;144.02;;;73.97;;
39982;SDS011;25670;44.782;10.356;2022-11-11T02:48:47;150.23;;;73.38;;
39982;SDS011;25670;44.782;10.356;2022-11-11T02:51:32;152.48;;;74.85;;
39982;SDS011;25670;44.782;10.356;2022-11-11T02:54:17;147.38;;;76.38;;
39982;SDS011;25670;44.782;10.356;2022-11-11T02:57:02;143.02;;;74.70;;
39982;SDS011;25670;44.782;10.356;2022-11-11T02:59:50;152.63;;;73.88;;
39982;SDS011;25670;44.782;10.356;2022-11-11T03:02:35;148.35;;;77.10;;
39982;SDS011;25670;44.782;10.356;2022-11-11T03:05:20;143.52;;;73.53;;
39982;SDS011;25670;44.782;10.356;2022-11-11T03:08:05;151.45;;;75.03;;
39982;SDS011;25670;44.782;10.356;2022-11-11T03:10:50;141.52;;;74.55;;
39982;SDS011;25670;44.782;10.356;2022-11-11T03:13:34;142.23;;;72.95;;
39982;SDS011;25670;44.782;10.356;2022-11-11T03:16:19;145.70;;;74.97;;
39982;SDS011;25670;44.782;10.356;2022-11-11T03:19:23;133.45;;;71.78;;
39982;SDS011;25670;44.782;10.356;2022-11-11T03:22:07;135.15;;;69.35;;
39982;SDS011;25670;44.782;10.356;2022-11-11T03:24:52;137.65;;;70.47;;
39982;SDS011;25670;44.782;10.356;2022-11-11T03:27:56;139.63;;;69.63;;
39982;SDS011;25670;44.782;10.356;2022-11-11T03:30:42;135.27;;;69.38;;
39982;SDS011;25670;44.782;10.356;2022-11-11T03:33:31;142.82;;;70.43;;
39982;SDS011;25670;44.782;10.356;2022-11-11T03:36:16;136.90;;;71.07;;
39982;SDS011;25670;44.782;10.356;2022-11-11T03:39:01;137.70;;;70.47;;
39982;SDS011;25670;44.782;10.356;2022-11-11T03:41:46;142.13;;;69.55;;
39982;SDS011;25670;44.782;10.356;2022-11-11T03:44:31;137.10;;;69.53;;
39982;SDS011;25670;44.782;10.356;2022-11-11T03:47:16;132.70;;;68.93;;
39982;SDS011;25670;44.782;10.356;2022-11-11T03:50:01;147.55;;;69.50;;
39982;SDS011;25670;44.782;10.356;2022-11-11T03:52:46;136.88;;;70.35;;
39982;SDS011;25670;44.782;10.356;2022-11-11T03:55:31;144.23;;;71.75;;
39982;SDS011;25670;44.782;10.356;2022-11-11T03:58:16;151.73;;;73.50;;
39982;SDS011;25670;44.782;10.356;2022-11-11T04:01:01;148.90;;;73.40;;
39982;SDS011;25670;44.782;10.356;2022-11-11T04:04:07;158.35;;;75.15;;
39982;SDS011;25670;44.782;10.356;2022-11-11T04:07:10;141.85;;;69.30;;
39982;SDS011;25670;44.782;10.356;2022-11-11T04:10:14;151.20;;;70.97;;
39982;SDS011;25670;44.782;10.356;2022-11-11T04:13:07;147.23;;;72.43;;
39982;SDS011;25670;44.782;10.356;2022-11-11T04:16:12;140.73;;;69.07;;
39982;SDS011;25670;44.782;10.356;2022-11-11T04:18:58;146.73;;;70.45;;
39982;SDS011;25670;44.782;10.356;2022-11-11T04:22:02;144.23;;;69.72;;
39982;SDS011;25670;44.782;10.356;2022-11-11T04:24:47;146.90;;;70.38;;
39982;SDS011;25670;44.782;10.356;2022-11-11T04:27:51;151.32;;;71.55;;
39982;SDS011;25670;44.782;10.356;2022-11-11T04:30:59;144.15;;;69.90;;
39982;SDS011;25670;44.782;10.356;2022-11-11T04:33:44;153.23;;;71.32;;
39982;SDS011;25670;44.782;10.356;2022-11-11T04:36:28;147.80;;;71.55;;
39982;SDS011;25670;44.782;10.356;2022-11-11T04:39:13;158.15;;;72.43;;
39982;SDS011;25670;44.782;10.356;2022-11-11T04:42:16;148.68;;;71.82;;
39982;SDS011;25670;44.782;10.356;2022-11-11T04:45:01;152.57;;;73.95;;
39982;SDS011;25670;44.782;10.356;2022-11-11T04:48:06;155.90;;;71.70;;
39982;SDS011;25670;44.782;10.356;2022-11-11T04:50:56;148.52;;;70.80;;
39982;SDS011;25670;44.782;10.356;2022-11-11T04:53:41;143.25;;;67.93;;
39982;SDS011;25670;44.782;10.356;2022-11-11T04:56:25;162.52;;;73.63;;
39982;SDS011;25670;44.782;10.356;2022-11-11T04:59:29;159.10;;;72.07;;
39982;SDS011;25670;44.782;10.356;2022-11-11T05:02:13;162.30;;;75.22;;
39982;SDS011;25670;44.782;10.356;2022-11-11T05:05:17;158.75;;;73.72;;
39982;SDS011;25670;44.782;10.356;2022-11-11T05:08:03;160.20;;;71.63;;
39982;SDS011;25670;44.782;10.356;2022-11-11T05:11:16;158.65;;;73.85;;
39982;SDS011;25670;44.782;10.356;2022-11-11T05:14:05;162.90;;;73.03;;
39982;SDS011;25670;44.782;10.356;2022-11-11T05:17:09;161.30;;;73.93;;
39982;SDS011;25670;44.782;10.356;2022-11-11T05:20:12;177.93;;;75.22;;
39982;SDS011;25670;44.782;10.356;2022-11-11T05:23:16;162.30;;;72.93;;
39982;SDS011;25670;44.782;10.356;2022-11-11T05:26:01;177.30;;;75.40;;
39982;SDS011;25670;44.782;10.356;2022-11-11T05:28:45;176.27;;;77.30;;
39982;SDS011;25670;44.782;10.356;2022-11-11T05:31:30;177.00;;;74.45;;
39982;SDS011;25670;44.782;10.356;2022-11-11T05:34:15;191.82;;;79.40;;
39982;SDS011;25670;44.782;10.356;2022-11-11T05:37:00;192.00;;;81.50;;
39982;SDS011;25670;44.782;10.356;2022-11-11T05:39:44;190.38;;;81.03;;
39982;SDS011;25670;44.782;10.356;2022-11-11T05:42:30;190.95;;;80.80;;
39982;SDS011;25670;44.782;10.356;2022-11-11T05:45:14;189.63;;;80.38;;
39982;SDS011;25670;44.782;10.356;2022-11-11T05:48:00;187.55;;;79.53;;
39982;SDS011;25670;44.782;10.356;2022-11-11T05:50:45;183.93;;;79.50;;
39982;SDS011;25670;44.782;10.356;2022-11-11T05:53:30;179.75;;;79.88;;
39982;SDS011;25670;44.782;10.356;2022-11-11T05:56:16;177.20;;;79.32;;
39982;SDS011;25670;44.782;10.356;2022-11-11T05:59:01;191.95;;;81.65;;
39982;SDS011;25670;44.782;10.356;2022-11-11T06:01:47;180.15;;;80.05;;
39982;SDS011;25670;44.782;10.356;2022-11-11T06:04:31;190.00;;;79.88;;
39982;SDS011;25670;44.782;10.356;2022-11-11T06:07:18;185.80;;;81.97;;
39982;SDS011;25670;44.782;10.356;2022-11-11T06:10:02;179.15;;;81.90;;
39982;SDS011;25670;44.782;10.356;2022-11-11T06:13:06;195.57;;;84.45;;
39982;SDS011;25670;44.782;10.356;2022-11-11T06:15:54;206.20;;;84.65;;
39982;SDS011;25670;44.782;10.356;2022-11-11T06:18:40;203.30;;;82.75;;
39982;SDS011;25670;44.782;10.356;2022-11-11T06:21:25;199.18;;;84.88;;
39982;SDS011;25670;44.782;10.356;2022-11-11T06:24:10;195.73;;;85.65;;
39982;SDS011;25670;44.782;10.356;2022-11-11T06:26:55;205.77;;;86.05;;
39982;SDS011;25670;44.782;10.356;2022-11-11T06:29:40;218.25;;;88.35;;
39982;SDS011;25670;44.782;10.356;2022-11-11T06:32:25;204.63;;;88.57;;
39982;SDS011;25670;44.782;10.356;2022-11-11T06:35:09;222.20;;;91.53;;
39982;SDS011;25670;44.782;10.356;2022-11-11T06:37:54;238.18;;;95.55;;
39982;SDS011;25670;44.782;10.356;2022-11-11T06:40:40;237.18;;;94.53;;
39982;SDS011;25670;44.782;10.356;2022-11-11T06:43:26;236.80;;;95.88;;
39982;SDS011;25670;44.782;10.356;2022-11-11T06:46:20;256.30;;;100.55;;
39982;SDS011;25670;44.782;10.356;2022-11-11T06:49:07;252.43;;;103.93;;
39982;SDS011;25670;44.782;10.356;2022-11-11T06:51:51;268.50;;;109.82;;
39982;SDS011;25670;44.782;10.356;2022-11-11T06:54:36;265.88;;;106.82;;
39982;SDS011;25670;44.782;10.356;2022-11-11T06:57:21;273.00;;;106.57;;
39982;SDS011;25670;44.782;10.356;2022-11-11T07:00:07;266.75;;;108.32;;
39982;SDS011;25670;44.782;10.356;2022-11-11T07:02:56;236.48;;;103.97;;
39982;SDS011;25670;44.782;10.356;2022-11-11T07:05:41;241.13;;;102.78;;
39982;SDS011;25670;44.782;10.356;2022-11-11T07:08:26;241.07;;;104.22;;
39982;SDS011;25670;44.782;10.356;2022-11-11T07:11:11;238.23;;;102.45;;
39982;SDS011;25670;44.782;10.356;2022-11-11T07:13:57;230.27;;;99.57;;
39982;SDS011;25670;44.782;10.356;2022-11-11T07:16:41;225.30;;;96.22;;
39982;SDS011;25670;44.782;10.356;2022-11-11T07:19:26;234.70;;;97.53;;
39982;SDS011;25670;44.782;10.356;2022-11-11T07:22:11;217.75;;;95.90;;
39982;SDS011;25670;44.782;10.356;2022-11-11T07:24:56;209.45;;;92.75;;
39982;SDS011;25670;44.782;10.356;2022-11-11T07:27:41;213.25;;;90.60;;
39982;SDS011;25670;44.782;10.356;2022-11-11T07:30:26;197.25;;;88.80;;
39982;SDS011;25670;44.782;10.356;2022-11-11T07:33:11;198.63;;;87.90;;
39982;SDS011;25670;44.782;10.356;2022-11-11T07:35:56;189.77;;;87.70;;
39982;SDS011;25670;44.782;10.356;2022-11-11T07:38:41;189.80;;;86.05;;
39982;SDS011;25670;44.782;10.356;2022-11-11T07:41:26;170.25;;;77.47;;
39982;SDS011;25670;44.782;10.356;2022-11-11T07:44:10;161.82;;;76.43;;
39982;SDS011;25670;44.782;10.356;2022-11-11T07:46:55;173.50;;;78.05;;
39982;SDS011;25670;44.782;10.356;2022-11-11T07:49:39;176.43;;;77.03;;
39982;SDS011;25670;44.782;10.356;2022-11-11T07:52:26;170.25;;;78.47;;
39982;SDS011;25670;44.782;10.356;2022-11-11T07:55:11;168.00;;;76.47;;
39982;SDS011;25670;44.782;10.356;2022-11-11T07:57:56;165.60;;;75.68;;
39982;SDS011;25670;44.782;10.356;2022-11-11T08:00:42;164.90;;;71.20;;
39982;SDS011;25670;44.782;10.356;2022-11-11T08:03:27;148.38;;;70.60;;
39982;SDS011;25670;44.782;10.356;2022-11-11T08:06:12;152.77;;;71.63;;
39982;SDS011;25670;44.782;10.356;2022-11-11T08:08:57;158.88;;;74.43;;
39982;SDS011;25670;44.782;10.356;2022-11-11T08:11:43;166.98;;;75.05;;
39982;SDS011;25670;44.782;10.356;2022-11-11T08:14:51;165.35;;;75.22;;
39982;SDS011;25670;44.782;10.356;2022-11-11T08:17:36;183.07;;;74.70;;
39982;SDS011;25670;44.782;10.356;2022-11-11T08:20:24;173.68;;;78.30;;
39982;SDS011;25670;44.782;10.356;2022-11-11T08:23:10;159.25;;;71.97;;
39982;SDS011;25670;44.782;10.356;2022-11-11T08:25:56;150.52;;;69.05;;
39982;SDS011;25670;44.782;10.356;2022-11-11T08:28:41;155.50;;;70.28;;
39982;SDS011;25670;44.782;10.356;2022-11-11T08:31:25;150.80;;;68.43;;
39982;SDS011;25670;44.782;10.356;2022-11-11T08:34:11;143.07;;;66.88;;
39982;SDS011;25670;44.782;10.356;2022-11-11T08:36:58;146.10;;;65.93;;
39982;SDS011;25670;44.782;10.356;2022-11-11T08:39:43;149.23;;;66.05;;
39982;SDS011;25670;44.782;10.356;2022-11-11T08:42:28;138.65;;;64.78;;
39982;SDS011;25670;44.782;10.356;2022-11-11T08:45:12;147.32;;;67.85;;
39982;SDS011;25670;44.782;10.356;2022-11-11T08:47:57;146.52;;;68.88;;
39982;SDS011;25670;44.782;10.356;2022-11-11T08:50:42;148.07;;;68.47;;
39982;SDS011;25670;44.782;10.356;2022-11-11T08:53:27;145.35;;;67.97;;
39982;SDS011;25670;44.782;10.356;2022-11-11T08:56:12;135.32;;;64.88;;
39982;SDS011;25670;44.782;10.356;2022-11-11T08:58:57;137.70;;;64.80;;
39982;SDS011;25670;44.782;10.356;2022-11-11T09:01:41;136.60;;;62.83;;
39982;SDS011;25670;44.782;10.356;2022-11-11T09:04:26;116.05;;;58.03;;
39982;SDS011;25670;44.782;10.356;2022-11-11T09:07:11;128.85;;;61.08;;
39982;SDS011;25670;44.782;10.356;2022-11-11T09:09:56;124.78;;;59.58;;
39982;SDS011;25670;44.782;10.356;2022-11-11T09:12:41;119.63;;;60.15;;
39982;SDS011;25670;44.782;10.356;2022-11-11T09:15:26;119.55;;;60.40;;
39982;SDS011;25670;44.782;10.356;2022-11-11T09:18:11;124.80;;;59.25;;
39982;SDS011;25670;44.782;10.356;2022-11-11T09:21:00;117.85;;;57.47;;
39982;SDS011;25670;44.782;10.356;2022-11-11T09:23:45;126.03;;;59.72;;
39982;SDS011;25670;44.782;10.356;2022-11-11T09:26:29;125.38;;;60.40;;
39982;SDS011;25670;44.782;10.356;2022-11-11T09:29:14;121.22;;;58.25;;
39982;SDS011;25670;44.782;10.356;2022-11-11T09:31:59;112.82;;;58.97;;
39982;SDS011;25670;44.782;10.356;2022-11-11T09:34:43;114.63;;;56.42;;
39982;SDS011;25670;44.782;10.356;2022-11-11T09:37:28;110.97;;;55.30;;
39982;SDS011;25670;44.782;10.356;2022-11-11T09:40:16;103.55;;;52.70;;
39982;SDS011;25670;44.782;10.356;2022-11-11T09:49:09;105.22;;;55.65;;
39982;SDS011;25670;44.782;10.356;2022-11-11T09:52:13;106.78;;;52.03;;
39982;SDS011;25670;44.782;10.356;2022-11-11T09:58:15;95.00;;;49.83;;
39982;SDS011;25670;44.782;10.356;2022-11-11T10:07:12;95.18;;;48.13;;
39982;SDS011;25670;44.782;10.356;2022-11-11T10:10:17;92.40;;;48.13;;
39982;SDS011;25670;44.782;10.356;2022-11-11T10:13:11;92.32;;;48.83;;
39982;SDS011;25670;44.782;10.356;2022-11-11T10:22:49;90.75;;;47.97;;
39982;SDS011;25670;44.782;10.356;2022-11-11T10:25:38;94.38;;;48.45;;
39982;SDS011;25670;44.782;10.356;2022-11-11T10:28:29;88.72;;;49.30;;
39982;SDS011;25670;44.782;10.356;2022-11-11T10:31:20;94.25;;;47.70;;
39982;SDS011;25670;44.782;10.356;2022-11-11T10:36:55;89.97;;;48.72;;
39982;SDS011;25670;44.782;10.356;2022-11-11T10:39:44;82.80;;;45.45;;
39982;SDS011;25670;44.782;10.356;2022-11-11T10:42:37;89.30;;;48.90;;
39982;SDS011;25670;44.782;10.356;2022-11-11T10:45:24;93.63;;;48.55;;
39982;SDS011;25670;44.782;10.356;2022-11-11T10:48:24;88.55;;;45.22;;
39982;SDS011;25670;44.782;10.356;2022-11-11T10:51:33;88.82;;;46.08;;
39982;SDS011;25670;44.782;10.356;2022-11-11T10:54:26;90.13;;;45.92;;
39982;SDS011;25670;44.782;10.356;2022-11-11T10:57:28;89.50;;;46.92;;
39982;SDS011;25670;44.782;10.356;2022-11-11T11:00:22;81.55;;;45.30;;
39982;SDS011;25670;44.782;10.356;2022-11-11T11:08:55;91.55;;;47.65;;
39982;SDS011;25670;44.782;10.356;2022-11-11T11:14:49;90.53;;;45.38;;
39982;SDS011;25670;44.782;10.356;2022-11-11T11:18:11;81.90;;;45.78;;
39982;SDS011;25670;44.782;10.356;2022-11-11T11:21:03;83.55;;;44.17;;
39982;SDS011;25670;44.782;10.356;2022-11-11T11:23:49;86.93;;;45.67;;
39982;SDS011;25670;44.782;10.356;2022-11-11T11:26:44;82.22;;;45.95;;
39982;SDS011;25670;44.782;10.356;2022-11-11T11:29:41;86.53;;;47.50;;
39982;SDS011;25670;44.782;10.356;2022-11-11T11:32:28;90.32;;;45.78;;
39982;SDS011;25670;44.782;10.356;2022-11-11T11:38:17;84.60;;;47.25;;
39982;SDS011;25670;44.782;10.356;2022-11-11T11:41:02;88.30;;;46.15;;
39982;SDS011;25670;44.782;10.356;2022-11-11T11:43:47;97.00;;;49.10;;
39982;SDS011;25670;44.782;10.356;2022-11-11T11:46:42;86.05;;;45.63;;
39982;SDS011;25670;44.782;10.356;2022-11-11T11:55:45;96.60;;;49.30;;
39982;SDS011;25670;44.782;10.356;2022-11-11T12:10:48;81.47;;;45.53;;
39982;SDS011;25670;44.782;10.356;2022-11-11T12:26:55;71.03;;;40.70;;
39982;SDS011;25670;44.782;10.356;2022-11-11T12:30:00;64.30;;;38.17;;
39982;SDS011;25670;44.782;10.356;2022-11-11T12:39:01;61.15;;;37.05;;
39982;SDS011;25670;44.782;10.356;2022-11-11T12:42:23;62.15;;;38.20;;
39982;SDS011;25670;44.782;10.356;2022-11-11T12:51:10;40.92;;;28.23;;
39982;SDS011;25670;44.782;10.356;2022-11-11T12:54:13;46.40;;;30.02;;
39982;SDS011;25670;44.782;10.356;2022-11-11T13:00:25;32.80;;;23.38;;
39982;SDS011;25670;44.782;10.356;2022-11-11T13:03:14;59.50;;;36.15;;
39982;SDS011;25670;44.782;10.356;2022-11-11T13:11:51;46.85;;;29.77;;
39982;SDS011;25670;44.782;10.356;2022-11-11T13:17:40;53.80;;;31.50;;
39982;SDS011;25670;44.782;10.356;2022-11-11T13:23:40;38.90;;;27.23;;
39982;SDS011;25670;44.782;10.356;2022-11-11T13:26:35;40.60;;;26.65;;
39982;SDS011;25670;44.782;10.356;2022-11-11T13:29:45;41.50;;;27.80;;
39982;SDS011;25670;44.782;10.356;2022-11-11T13:32:54;33.47;;;24.05;;
39982;SDS011;25670;44.782;10.356;2022-11-11T13:35:56;34.90;;;24.00;;
39982;SDS011;25670;44.782;10.356;2022-11-11T13:38:56;40.05;;;25.58;;
39982;SDS011;25670;44.782;10.356;2022-11-11T13:41:43;33.70;;;24.27;;
39982;SDS011;25670;44.782;10.356;2022-11-11T13:44:35;44.28;;;28.10;;
39982;SDS011;25670;44.782;10.356;2022-11-11T13:47:35;43.28;;;27.20;;
39982;SDS011;25670;44.782;10.356;2022-11-11T13:50:29;43.30;;;26.13;;
39982;SDS011;25670;44.782;10.356;2022-11-11T13:53:32;48.47;;;27.85;;
39982;SDS011;25670;44.782;10.356;2022-11-11T13:59:24;43.33;;;26.80;;
39982;SDS011;25670;44.782;10.356;2022-11-11T14:10:47;41.10;;;24.70;;
39982;SDS011;25670;44.782;10.356;2022-11-11T14:13:35;40.97;;;24.90;;
39982;SDS011;25670;44.782;10.356;2022-11-11T14:22:24;33.53;;;22.10;;
39982;SDS011;25670;44.782;10.356;2022-11-11T14:25:18;31.88;;;21.60;;
39982;SDS011;25670;44.782;10.356;2022-11-11T14:47:22;48.88;;;28.33;;
39982;SDS011;25670;44.782;10.356;2022-11-11T14:53:19;48.15;;;28.60;;
39982;SDS011;25670;44.782;10.356;2022-11-11T14:56:14;48.70;;;28.45;;
39982;SDS011;25670;44.782;10.356;2022-11-11T14:59:04;49.10;;;27.67;;
39982;SDS011;25670;44.782;10.356;2022-11-11T15:01:52;46.75;;;28.02;;
39982;SDS011;25670;44.782;10.356;2022-11-11T15:04:39;52.17;;;28.10;;
39982;SDS011;25670;44.782;10.356;2022-11-11T15:20:24;57.92;;;31.95;;
39982;SDS011;25670;44.782;10.356;2022-11-11T15:23:24;61.65;;;33.50;;
39982;SDS011;25670;44.782;10.356;2022-11-11T15:26:21;68.95;;;35.15;;
39982;SDS011;25670;44.782;10.356;2022-11-11T15:29:28;70.88;;;34.35;;
39982;SDS011;25670;44.782;10.356;2022-11-11T15:38:40;66.07;;;35.38;;
39982;SDS011;25670;44.782;10.356;2022-11-11T15:41:26;74.82;;;36.47;;
39982;SDS011;25670;44.782;10.356;2022-11-11T15:44:18;75.22;;;36.60;;
39982;SDS011;25670;44.782;10.356;2022-11-11T15:47:11;75.47;;;35.83;;
39982;SDS011;25670;44.782;10.356;2022-11-11T15:49:58;69.07;;;35.60;;
39982;SDS011;25670;44.782;10.356;2022-11-11T15:52:43;77.57;;;37.55;;
39982;SDS011;25670;44.782;10.356;2022-11-11T15:55:29;74.50;;;35.65;;
39982;SDS011;25670;44.782;10.356;2022-11-11T15:58:23;76.68;;;36.85;;
39982;SDS011;25670;44.782;10.356;2022-11-11T16:01:09;84.07;;;38.92;;
39982;SDS011;25670;44.782;10.356;2022-11-11T16:03:55;83.97;;;38.80;;
39982;SDS011;25670;44.782;10.356;2022-11-11T16:06:41;83.57;;;38.85;;
39982;SDS011;25670;44.782;10.356;2022-11-11T16:09:27;82.80;;;39.50;;
39982;SDS011;25670;44.782;10.356;2022-11-11T16:12:16;75.63;;;37.70;;
39982;SDS011;25670;44.782;10.356;2022-11-11T16:15:25;79.32;;;39.42;;
39982;SDS011;25670;44.782;10.356;2022-11-11T16:18:22;80.55;;;39.92;;
39982;SDS011;25670;44.782;10.356;2022-11-11T16:21:11;86.30;;;39.50;;
39982;SDS011;25670;44.782;10.356;2022-11-11T16:24:01;76.47;;;38.58;;
39982;SDS011;25670;44.782;10.356;2022-11-11T16:26:46;91.07;;;40.75;;
39982;SDS011;25670;44.782;10.356;2022-11-11T16:29:36;88.72;;;41.83;;
39982;SDS011;25670;44.782;10.356;2022-11-11T16:35:21;92.90;;;40.55;;
39982;SDS011;25670;44.782;10.356;2022-11-11T16:38:08;88.40;;;40.90;;
39982;SDS011;25670;44.782;10.356;2022-11-11T16:40:53;87.15;;;42.25;;
39982;SDS011;25670;44.782;10.356;2022-11-11T16:43:41;86.78;;;41.25;;
39982;SDS011;25670;44.782;10.356;2022-11-11T16:46:47;93.45;;;40.67;;
39982;SDS011;25670;44.782;10.356;2022-11-11T16:49:35;88.65;;;40.47;;
39982;SDS011;25670;44.782;10.356;2022-11-11T16:52:25;93.85;;;41.92;;
39982;SDS011;25670;44.782;10.356;2022-11-11T16:58:19;94.45;;;41.60;;
39982;SDS011;25670;44.782;10.356;2022-11-11T17:01:06;117.32;;;52.22;;
39982;SDS011;25670;44.782;10.356;2022-11-11T17:03:51;104.88;;;46.38;;
39982;SDS011;25670;44.782;10.356;2022-11-11T17:09:32;117.10;;;46.88;;
39982;SDS011;25670;44.782;10.356;2022-11-11T17:12:19;114.57;;;47.90;;
39982;SDS011;25670;44.782;10.356;2022-11-11T17:15:14;118.55;;;48.20;;
39982;SDS011;25670;44.782;10.356;2022-11-11T17:17:59;124.03;;;51.95;;
39982;SDS011;25670;44.782;10.356;2022-11-11T17:20:44;115.78;;;49.47;;
39982;SDS011;25670;44.782;10.356;2022-11-11T17:23:30;126.97;;;52.08;;
39982;SDS011;25670;44.782;10.356;2022-11-11T17:26:14;125.43;;;52.00;;
39982;SDS011;25670;44.782;10.356;2022-11-11T17:29:00;119.90;;;49.05;;
39982;SDS011;25670;44.782;10.356;2022-11-11T17:31:45;123.13;;;52.90;;
39982;SDS011;25670;44.782;10.356;2022-11-11T17:34:30;124.40;;;52.17;;
39982;SDS011;25670;44.782;10.356;2022-11-11T17:37:15;111.78;;;48.17;;
39982;SDS011;25670;44.782;10.356;2022-11-11T17:40:00;104.65;;;45.65;;
39982;SDS011;25670;44.782;10.356;2022-11-11T17:42:45;106.82;;;45.50;;
39982;SDS011;25670;44.782;10.356;2022-11-11T17:45:29;125.05;;;50.95;;
39982;SDS011;25670;44.782;10.356;2022-11-11T17:48:14;121.88;;;48.97;;
39982;SDS011;25670;44.782;10.356;2022-11-11T17:51:01;107.00;;;45.47;;
39982;SDS011;25670;44.782;10.356;2022-11-11T17:53:49;117.97;;;47.38;;
39982;SDS011;25670;44.782;10.356;2022-11-11T17:56:35;106.43;;;43.22;;
39982;SDS011;25670;44.782;10.356;2022-11-11T17:59:22;135.98;;;53.05;;
39982;SDS011;25670;44.782;10.356;2022-11-11T18:02:09;87.00;;;35.47;;
39982;SDS011;25670;44.782;10.356;2022-11-11T18:04:56;93.60;;;34.75;;
39982;SDS011;25670;44.782;10.356;2022-11-11T18:07:42;99.55;;;38.45;;
39982;SDS011;25670;44.782;10.356;2022-11-11T18:10:26;94.75;;;38.13;;
39982;SDS011;25670;44.782;10.356;2022-11-11T18:13:12;125.07;;;44.40;;
39982;SDS011;25670;44.782;10.356;2022-11-11T18:15:57;149.75;;;53.40;;
39982;SDS011;25670;44.782;10.356;2022-11-11T18:18:43;144.65;;;53.88;;
39982;SDS011;25670;44.782;10.356;2022-11-11T18:21:29;150.30;;;54.33;;
39982;SDS011;25670;44.782;10.356;2022-11-11T18:24:15;154.20;;;58.03;;
39982;SDS011;25670;44.782;10.356;2022-11-11T18:27:00;155.75;;;56.88;;
39982;SDS011;25670;44.782;10.356;2022-11-11T18:29:45;160.38;;;56.15;;
39982;SDS011;25670;44.782;10.356;2022-11-11T18:32:29;153.77;;;55.88;;
39982;SDS011;25670;44.782;10.356;2022-11-11T18:35:15;130.48;;;50.13;;
39982;SDS011;25670;44.782;10.356;2022-11-11T18:38:01;130.00;;;52.03;;
39982;SDS011;25670;44.782;10.356;2022-11-11T18:40:46;157.18;;;56.97;;
39982;SDS011;25670;44.782;10.356;2022-11-11T18:43:34;171.32;;;58.95;;
39982;SDS011;25670;44.782;10.356;2022-11-11T18:46:24;144.52;;;56.25;;
39982;SDS011;25670;44.782;10.356;2022-11-11T18:49:15;130.60;;;49.92;;
39982;SDS011;25670;44.782;10.356;2022-11-11T18:51:59;150.70;;;54.22;;
39982;SDS011;25670;44.782;10.356;2022-11-11T18:54:44;140.23;;;53.33;;
39982;SDS011;25670;44.782;10.356;2022-11-11T18:57:29;196.55;;;73.00;;